createdAt,value
2019-02-12T00:02:00.545Z,102717.98
2019-02-12T00:04:26.489Z,102721.51
2019-02-12T00:06:52.639Z,102721.44
2019-02-12T00:09:18.461Z,102730.11
2019-02-12T00:11:44.417Z,102735.23
2019-02-12T00:14:10.299Z,102733.92
2019-02-12T00:16:36.263Z,102746.66
2019-02-12T00:19:02.174Z,102757.54
2019-02-12T00:21:27.999Z,102757.47
2019-02-12T00:23:53.843Z,102765.22
2019-02-12T00:26:19.670Z,102776.98
2019-02-12T00:28:45.659Z,102769.89
2019-02-12T00:31:11.496Z,102775.16
2019-02-12T00:33:37.354Z,102773.88
2019-02-12T00:36:03.276Z,102771.67
2019-02-12T00:38:29.134Z,102761.69
2019-02-12T00:40:54.979Z,102766.67
2019-02-12T00:43:20.830Z,102771.97
2019-02-12T00:45:46.779Z,102772.71
2019-02-12T00:48:12.647Z,102769.89
2019-02-12T00:50:38.477Z,102779.42
2019-02-12T00:53:04.333Z,102782.56
2019-02-12T00:55:30.148Z,102786.10
2019-02-12T00:57:56.015Z,102785.70
2019-02-12T01:00:21.863Z,102790.16
2019-02-12T01:02:47.704Z,102792.72
2019-02-12T01:05:13.662Z,102789.83
2019-02-12T01:07:39.502Z,102783.55
2019-02-12T01:10:09.221Z,102788.17
2019-02-12T01:12:35.668Z,102788.42
2019-02-12T01:15:01.508Z,102788.17
2019-02-12T01:17:27.348Z,102789.63
2019-02-12T01:19:53.218Z,102787.56
2019-02-12T01:22:19.032Z,102792.84
2019-02-12T01:24:44.955Z,102798.89
2019-02-12T01:27:10.818Z,102804.95
2019-02-12T01:29:36.634Z,102798.30
2019-02-12T01:32:02.471Z,102794.88
2019-02-12T01:34:28.322Z,102791.44
2019-02-12T01:36:54.171Z,102792.39
2019-02-12T01:39:19.988Z,102796.27
2019-02-12T01:41:45.841Z,102798.84
2019-02-12T01:44:11.672Z,102802.69
2019-02-12T01:46:37.501Z,102800.83
2019-02-12T01:49:03.331Z,102799.41
2019-02-12T01:51:34.952Z,102792.02
2019-02-12T01:53:56.892Z,102794.36
2019-02-12T01:56:22.759Z,102806.25
2019-02-12T01:58:48.617Z,102799.39
2019-02-12T02:01:14.484Z,102797.72
2019-02-12T02:03:40.299Z,102799.56
2019-02-12T02:06:06.160Z,102800.05
2019-02-12T02:08:32.094Z,102796.63
2019-02-12T02:10:57.938Z,102801.11
2019-02-12T02:13:23.777Z,102813.35
2019-02-12T02:15:49.594Z,102808.23
2019-02-12T02:18:15.441Z,102808.37
2019-02-12T02:20:41.266Z,102818.05
2019-02-12T02:23:07.144Z,102813.31
2019-02-12T02:25:32.994Z,102806.42
2019-02-12T02:27:58.809Z,102812.61
2019-02-12T02:30:24.617Z,102805.26
2019-02-12T02:32:50.499Z,102810.96
2019-02-12T02:35:16.309Z,102814.91
2019-02-12T02:37:42.125Z,102808.84
2019-02-12T02:40:09.368Z,102806.69
2019-02-12T02:42:35.177Z,102817.57
2019-02-12T02:45:01.027Z,102808.39
2019-02-12T02:47:26.961Z,102808.84
2019-02-12T02:49:52.811Z,102814.48
2019-02-12T02:52:18.665Z,102824.97
2019-02-12T02:54:44.506Z,102827.59
2019-02-12T02:57:10.354Z,102828.50
2019-02-12T02:59:36.182Z,102832.91
2019-02-12T03:02:02.027Z,102831.17
2019-02-12T03:04:27.875Z,102826.81
2019-02-12T03:06:53.697Z,102821.63
2019-02-12T03:09:19.546Z,102818.16
2019-02-12T03:11:45.363Z,102822.08
2019-02-12T03:14:11.326Z,102828.12
2019-02-12T03:16:37.144Z,102842.91
2019-02-12T03:19:03.115Z,102848.88
2019-02-12T03:21:29.048Z,102837.98
2019-02-12T03:23:54.862Z,102834.01
2019-02-12T03:26:20.693Z,102837.95
2019-02-12T03:28:46.508Z,102837.17
2019-02-12T03:31:12.356Z,102846.78
2019-02-12T03:33:38.160Z,102842.02
2019-02-12T03:36:04.003Z,102841.21
2019-02-12T03:38:29.818Z,102839.94
2019-02-12T03:40:55.797Z,102843.47
2019-02-12T03:43:21.622Z,102847.84
2019-02-12T03:45:47.476Z,102855.63
2019-02-12T03:48:13.305Z,102855.52
2019-02-12T03:50:39.165Z,102860.20
2019-02-12T03:53:04.981Z,102860.11
2019-02-12T03:55:30.923Z,102864.37
2019-02-12T03:57:56.744Z,102856.85
2019-02-12T04:00:22.693Z,102862.03
2019-02-12T04:03:00.546Z,102877.19
2019-02-12T04:05:26.474Z,102873.61
2019-02-12T04:07:54.200Z,102872.16
2019-02-12T04:10:20.040Z,102861.16
2019-02-12T04:12:45.972Z,102863.26
2019-02-12T04:15:12.008Z,102857.48
2019-02-12T04:17:37.865Z,102848.73
2019-02-12T04:20:03.800Z,102850.48
2019-02-12T04:22:29.700Z,102853.22
2019-02-12T04:24:55.561Z,102856.83
2019-02-12T04:27:21.409Z,102864.83
2019-02-12T04:29:47.219Z,102864.10
2019-02-12T04:32:13.057Z,102865.13
2019-02-12T04:34:38.868Z,102863.87
2019-02-12T04:37:04.728Z,102872.28
2019-02-12T04:39:30.553Z,102878.89
2019-02-12T04:41:56.444Z,102872.00
2019-02-12T04:44:22.222Z,102868.13
2019-02-12T04:46:48.040Z,102866.41
2019-02-12T04:49:14.060Z,102862.95
2019-02-12T04:51:39.876Z,102866.89
2019-02-12T04:54:05.716Z,102871.72
2019-02-12T04:56:31.630Z,102867.84
2019-02-12T04:58:57.463Z,102866.98
2019-02-12T05:01:23.312Z,102873.53
2019-02-12T05:03:49.151Z,102871.80
2019-02-12T05:06:14.975Z,102869.16
2019-02-12T05:09:04.225Z,102872.66
2019-02-12T05:11:30.039Z,102874.44
2019-02-12T05:13:55.874Z,102876.64
2019-02-12T05:16:21.694Z,102874.03
2019-02-12T05:18:47.534Z,102879.27
2019-02-12T05:21:13.754Z,102884.50
2019-02-12T05:23:39.639Z,102882.32
2019-02-12T05:26:05.452Z,102881.48
2019-02-12T05:28:31.284Z,102884.52
2019-02-12T05:30:57.133Z,102885.39
2019-02-12T05:33:25.576Z,102892.80
2019-02-12T05:35:51.384Z,102891.50
2019-02-12T05:38:17.329Z,102889.76
2019-02-12T05:40:43.160Z,102891.95
2019-02-12T05:43:09.022Z,102887.59
2019-02-12T05:45:34.901Z,102900.66
2019-02-12T05:48:00.739Z,102898.88
2019-02-12T05:50:26.586Z,102901.03
2019-02-12T05:52:54.777Z,102894.94
2019-02-12T05:55:20.340Z,102895.82
2019-02-12T05:57:46.177Z,102895.40
2019-02-12T06:00:16.166Z,102891.89
2019-02-12T06:02:42.036Z,102892.34
2019-02-12T06:05:07.890Z,102888.82
2019-02-12T06:07:33.707Z,102886.66
2019-02-12T06:09:59.556Z,102890.54
2019-02-12T06:12:25.381Z,102895.30
2019-02-12T06:14:51.223Z,102893.56
2019-02-12T06:17:17.065Z,102890.52
2019-02-12T06:19:43.011Z,102892.25
2019-02-12T06:22:09.055Z,102887.45
2019-02-12T06:24:34.872Z,102887.02
2019-02-12T06:27:00.742Z,102891.36
2019-02-12T06:29:26.852Z,102892.25
2019-02-12T06:31:52.711Z,102900.54
2019-02-12T06:34:18.546Z,102894.45
2019-02-12T06:36:44.484Z,102890.52
2019-02-12T06:39:10.301Z,102887.50
2019-02-12T06:41:36.561Z,102898.79
2019-02-12T06:44:02.499Z,102902.73
2019-02-12T06:46:29.528Z,102901.39
2019-02-12T06:48:55.788Z,102896.59
2019-02-12T06:51:21.645Z,102904.44
2019-02-12T06:53:47.471Z,102904.02
2019-02-12T06:56:13.316Z,102908.80
2019-02-12T06:58:39.167Z,102915.74
2019-02-12T07:01:05.061Z,102917.47
2019-02-12T07:03:37.286Z,102920.93
2019-02-12T07:06:13.024Z,102938.34
2019-02-12T07:08:45.433Z,102938.72
2019-02-12T07:11:47.187Z,102934.34
2019-02-12T07:14:33.570Z,102938.23
2019-02-12T07:17:12.370Z,102950.41
2019-02-12T07:19:51.069Z,102946.44
2019-02-12T07:22:37.515Z,102955.13
2019-02-12T07:25:07.148Z,102955.14
2019-02-12T07:27:51.649Z,102956.36
2019-02-12T07:30:42.604Z,102966.75
2019-02-12T07:33:15.075Z,102967.55
2019-02-12T07:35:53.658Z,102975.73
2019-02-12T07:38:26.087Z,102986.45
2019-02-12T07:40:55.722Z,102979.30
2019-02-12T07:43:28.121Z,102980.02
2019-02-12T07:46:03.615Z,102999.94
2019-02-12T07:48:39.341Z,103002.94
2019-02-12T07:51:18.061Z,103004.98
2019-02-12T07:54:02.724Z,103009.25
2019-02-12T07:56:37.948Z,103016.13
2019-02-12T07:59:16.059Z,103015.59
2019-02-12T08:01:57.997Z,103021.20
2019-02-12T08:04:52.040Z,103022.38
2019-02-12T08:07:33.398Z,103023.59
2019-02-12T08:10:32.188Z,103029.25
2019-02-12T08:13:01.827Z,103035.77
2019-02-12T08:15:31.501Z,103049.79
2019-02-12T08:18:01.154Z,103051.60
2019-02-12T08:20:36.471Z,103056.36
2019-02-12T08:23:12.283Z,103041.73
2019-02-12T08:25:50.646Z,103045.81
2019-02-12T08:28:23.269Z,103037.55
2019-02-12T08:31:04.528Z,103045.19
2019-02-12T08:33:37.268Z,103046.00
2019-02-12T08:36:10.093Z,103046.00
2019-02-12T08:38:48.898Z,103043.30
2019-02-12T08:41:50.399Z,103044.77
2019-02-12T08:44:35.293Z,103039.45
2019-02-12T08:47:19.895Z,103049.23
2019-02-12T08:49:55.562Z,103052.38
2019-02-12T08:52:54.031Z,103060.59
2019-02-12T08:55:38.248Z,103056.47
2019-02-12T08:58:10.896Z,103060.34
2019-02-12T09:00:43.763Z,103055.42
2019-02-12T09:03:34.902Z,103054.78
2019-02-12T09:06:13.556Z,103060.02
2019-02-12T09:08:45.792Z,103063.05
2019-02-12T09:11:24.227Z,103060.73
2019-02-12T09:14:09.217Z,103068.87
2019-02-12T09:16:57.485Z,103059.05
2019-02-12T09:19:30.374Z,103067.23
2019-02-12T09:22:16.958Z,103079.73
2019-02-12T09:25:11.163Z,103079.30
2019-02-12T09:27:55.796Z,103079.23
2019-02-12T09:30:28.443Z,103079.66
2019-02-12T09:33:06.999Z,103085.85
2019-02-12T09:35:42.423Z,103080.55
2019-02-12T09:38:39.359Z,103086.84
2019-02-12T09:41:27.972Z,103081.87
2019-02-12T09:44:09.499Z,103089.53
2019-02-12T09:46:42.172Z,103092.94
2019-02-12T09:49:38.534Z,103092.94
2019-02-12T09:52:25.061Z,103093.81
2019-02-12T09:55:03.884Z,103097.79
2019-02-12T09:57:33.540Z,103095.97
2019-02-12T10:00:15.148Z,103098.34
2019-02-12T10:02:56.826Z,103098.34
2019-02-12T10:05:49.277Z,103102.03
2019-02-12T10:08:24.681Z,103088.50
2019-02-12T10:11:12.557Z,103101.16
2019-02-12T10:13:48.379Z,103095.62
2019-02-12T10:16:36.112Z,103101.38
2019-02-12T10:19:08.805Z,103101.38
2019-02-12T10:21:58.224Z,103103.94
2019-02-12T10:24:27.813Z,103097.52
2019-02-12T10:27:12.885Z,103093.55
2019-02-12T10:29:57.599Z,103088.63
2019-02-12T10:32:23.228Z,103092.23
2019-02-12T10:34:49.068Z,103096.33
2019-02-12T10:37:15.013Z,103093.98
2019-02-12T10:39:40.857Z,103094.92
2019-02-12T10:42:06.799Z,103096.95
2019-02-12T10:44:34.570Z,103102.61
2019-02-12T10:47:00.493Z,103097.19
2019-02-12T10:49:26.393Z,103092.78
2019-02-12T10:51:52.383Z,103098.27
2019-02-12T10:54:18.206Z,103102.98
2019-02-12T10:56:44.063Z,103105.54
2019-02-12T10:59:09.889Z,103101.73
2019-02-12T11:01:35.851Z,103103.41
2019-02-12T11:04:01.715Z,103098.27
2019-02-12T11:06:27.591Z,103095.00
2019-02-12T11:08:53.408Z,103096.41
2019-02-12T11:11:19.385Z,103091.81
2019-02-12T11:13:45.244Z,103095.71
2019-02-12T11:16:11.141Z,103089.55
2019-02-12T11:18:37.107Z,103100.02
2019-02-12T11:21:03.177Z,103094.98
2019-02-12T11:23:29.008Z,103088.08
2019-02-12T11:25:54.874Z,103087.11
2019-02-12T11:28:20.710Z,103085.81
2019-02-12T11:30:46.540Z,103084.52
2019-02-12T11:33:12.392Z,103080.00
2019-02-12T11:35:38.311Z,103085.87
2019-02-12T11:38:04.179Z,103086.68
2019-02-12T11:40:30.115Z,103081.13
2019-02-12T11:42:56.051Z,103077.23
2019-02-12T11:45:21.971Z,103080.34
2019-02-12T11:47:47.807Z,103082.92
2019-02-12T11:50:13.716Z,103079.09
2019-02-12T11:52:39.942Z,103079.17
2019-02-12T11:55:10.967Z,103074.66
2019-02-12T11:57:36.836Z,103079.92
2019-02-12T12:00:05.900Z,103076.92
2019-02-12T12:02:32.626Z,103078.33
2019-02-12T12:04:58.659Z,103087.70
2019-02-12T12:07:24.510Z,103086.95
2019-02-12T12:09:50.352Z,103082.91
2019-02-12T12:12:16.174Z,103084.76
2019-02-12T12:14:42.012Z,103078.92
2019-02-12T12:17:07.853Z,103078.13
2019-02-12T12:19:33.849Z,103076.38
2019-02-12T12:21:59.703Z,103072.81
2019-02-12T12:24:25.584Z,103076.97
2019-02-12T12:26:51.395Z,103068.95
2019-02-12T12:29:17.232Z,103062.67
2019-02-12T12:31:43.043Z,103062.78
2019-02-12T12:34:08.998Z,103057.80
2019-02-12T12:36:34.815Z,103065.55
2019-02-12T12:39:00.675Z,103057.62
2019-02-12T12:41:26.494Z,103055.95
2019-02-12T12:43:52.366Z,103063.54
2019-02-12T12:46:18.217Z,103058.06
2019-02-12T12:48:44.078Z,103055.14
2019-02-12T12:51:09.921Z,103053.34
2019-02-12T12:53:35.772Z,103050.70
2019-02-12T12:56:01.639Z,103052.32
2019-02-12T12:58:27.960Z,103045.58
2019-02-12T13:00:53.983Z,103037.70
2019-02-12T13:03:19.829Z,103043.22
2019-02-12T13:05:45.780Z,103033.97
2019-02-12T13:08:11.600Z,103037.27
2019-02-12T13:10:37.453Z,103037.95
2019-02-12T13:13:04.787Z,103040.32
2019-02-12T13:15:30.952Z,103045.22
2019-02-12T13:17:56.779Z,103040.06
2019-02-12T13:20:22.650Z,103041.47
2019-02-12T13:22:48.519Z,103039.73
2019-02-12T13:25:14.380Z,103037.38
2019-02-12T13:27:40.213Z,103042.42
2019-02-12T13:30:09.881Z,103033.84
2019-02-12T13:32:35.711Z,103039.81
2019-02-12T13:35:02.081Z,103033.10
2019-02-12T13:37:27.933Z,103035.45
2019-02-12T13:39:53.759Z,103037.95
2019-02-12T13:42:19.615Z,103038.80
2019-02-12T13:44:45.470Z,103035.61
2019-02-12T13:47:11.359Z,103045.30
2019-02-12T13:49:37.202Z,103035.66
2019-02-12T13:52:03.182Z,103048.17
2019-02-12T13:54:29.023Z,103043.75
2019-02-12T13:56:54.856Z,103042.52
2019-02-12T13:59:20.682Z,103044.81
2019-02-12T14:01:46.619Z,103055.62
2019-02-12T14:04:13.051Z,103058.89
2019-02-12T14:06:41.647Z,103061.07
2019-02-12T14:09:08.117Z,103057.84
2019-02-12T14:11:33.987Z,103062.66
2019-02-12T14:13:59.843Z,103063.00
2019-02-12T14:16:25.667Z,103064.28
2019-02-12T14:18:51.534Z,103060.86
2019-02-12T14:21:17.420Z,103061.21
2019-02-12T14:23:43.257Z,103061.88
2019-02-12T14:26:09.084Z,103060.27
2019-02-12T14:28:34.933Z,103058.67
2019-02-12T14:31:00.768Z,103053.59
2019-02-12T14:33:26.621Z,103053.67
2019-02-12T14:35:52.564Z,103057.63
2019-02-12T14:38:18.381Z,103057.13
2019-02-12T14:40:44.440Z,103056.61
2019-02-12T14:43:14.053Z,103055.52
2019-02-12T14:45:38.143Z,103060.42
2019-02-12T14:48:04.001Z,103054.31
2019-02-12T14:50:29.935Z,103059.25
2019-02-12T14:52:55.923Z,103059.64
2019-02-12T14:55:21.812Z,103061.11
2019-02-12T14:57:47.654Z,103059.09
2019-02-12T15:00:18.192Z,103057.14
2019-02-12T15:02:44.165Z,103053.58
2019-02-12T15:05:10.425Z,103052.48
2019-02-12T15:07:36.359Z,103046.06
2019-02-12T15:10:04.931Z,103039.56
2019-02-12T15:12:30.773Z,103028.55
2019-02-12T15:14:56.736Z,103028.66
2019-02-12T15:17:22.662Z,103030.30
2019-02-12T15:19:48.532Z,103024.29
2019-02-12T15:22:14.367Z,103020.47
2019-02-12T15:24:40.207Z,103032.16
2019-02-12T15:27:06.035Z,103040.63
2019-02-12T15:29:31.929Z,103047.27
2019-02-12T15:31:57.780Z,103043.48
2019-02-12T15:34:23.624Z,103049.24
2019-02-12T15:36:49.466Z,103051.13
2019-02-12T15:39:15.329Z,103053.36
2019-02-12T15:41:41.184Z,103061.26
2019-02-12T15:44:07.063Z,103058.02
2019-02-12T15:46:32.978Z,103063.70
2019-02-12T15:48:58.913Z,103064.19
2019-02-12T15:51:24.804Z,103056.50
2019-02-12T15:53:50.635Z,103059.38
2019-02-12T15:56:16.688Z,103059.16
2019-02-12T15:58:42.635Z,103057.20
2019-02-12T16:01:08.492Z,103065.03
2019-02-12T16:03:36.051Z,103065.31
2019-02-12T16:06:02.249Z,103056.33
2019-02-12T16:08:30.006Z,103057.41
2019-02-12T16:10:57.111Z,103058.98
2019-02-12T16:13:23.735Z,103060.52
2019-02-12T16:15:53.368Z,103054.19
2019-02-12T16:18:21.390Z,103051.41
2019-02-12T16:20:47.241Z,103057.45
2019-02-12T16:23:16.561Z,103060.52
2019-02-12T16:25:59.341Z,103065.92
2019-02-12T16:28:24.704Z,103062.66
2019-02-12T16:30:50.591Z,103073.28
2019-02-12T16:33:19.315Z,103074.62
2019-02-12T16:35:45.291Z,103081.50
2019-02-12T16:38:11.491Z,103082.02
2019-02-12T16:40:41.736Z,103077.98
2019-02-12T16:43:12.498Z,103074.91
2019-02-12T16:45:50.075Z,103078.94
2019-02-12T16:48:29.129Z,103085.08
2019-02-12T16:50:55.097Z,103088.84
2019-02-12T16:53:27.753Z,103090.13
2019-02-12T16:55:52.590Z,103087.93
2019-02-12T16:58:25.896Z,103095.23
2019-02-12T17:00:53.724Z,103098.53
2019-02-12T17:03:19.738Z,103096.81
2019-02-12T17:05:47.506Z,103105.13
2019-02-12T17:08:15.271Z,103105.20
2019-02-12T17:10:44.231Z,103103.09
2019-02-12T17:13:14.236Z,103108.00
2019-02-12T17:15:46.283Z,103101.02
2019-02-12T17:18:12.683Z,103110.46
2019-02-12T17:20:38.632Z,103114.36
2019-02-12T17:23:09.185Z,103118.77
2019-02-12T17:25:35.139Z,103124.11
2019-02-12T17:28:01.456Z,103124.66
2019-02-12T17:30:29.040Z,103123.35
2019-02-12T17:32:54.997Z,103123.63
2019-02-12T17:35:20.865Z,103124.95
2019-02-12T17:37:50.069Z,103126.42
2019-02-12T17:40:17.843Z,103130.55
2019-02-12T17:42:43.830Z,103127.67
2019-02-12T17:45:14.569Z,103133.67
2019-02-12T17:47:40.509Z,103132.16
2019-02-12T17:50:08.783Z,103136.72
2019-02-12T17:52:34.621Z,103136.78
2019-02-12T17:55:01.624Z,103130.14
2019-02-12T17:57:27.578Z,103135.88
2019-02-12T17:59:54.386Z,103145.34
2019-02-12T18:02:20.253Z,103141.39
2019-02-12T18:04:46.142Z,103150.55
2019-02-12T18:07:12.085Z,103146.92
2019-02-12T18:09:38.096Z,103145.47
2019-02-12T18:12:04.040Z,103142.70
2019-02-12T18:14:29.873Z,103143.93
2019-02-12T18:16:55.764Z,103142.98
2019-02-12T18:19:21.691Z,103141.23
2019-02-12T18:21:47.665Z,103143.56
2019-02-12T18:24:13.526Z,103140.97
2019-02-12T18:26:39.404Z,103141.52
2019-02-12T18:29:05.280Z,103139.80
2019-02-12T18:31:31.149Z,103137.30
2019-02-12T18:33:57.006Z,103137.71
2019-02-12T18:36:22.926Z,103136.91
2019-02-12T18:38:48.813Z,103137.05
2019-02-12T18:41:14.820Z,103141.94
2019-02-12T18:43:40.632Z,103136.73
2019-02-12T18:46:06.590Z,103134.15
2019-02-12T18:48:32.459Z,103139.35
2019-02-12T18:50:58.493Z,103137.72
2019-02-12T18:53:24.446Z,103141.78
2019-02-12T18:55:50.495Z,103144.37
2019-02-12T18:58:16.612Z,103142.25
2019-02-12T19:00:42.565Z,103142.25
2019-02-12T19:03:08.944Z,103143.36
2019-02-12T19:05:35.136Z,103137.48
2019-02-12T19:08:01.210Z,103134.30
2019-02-12T19:10:27.108Z,103137.75
2019-02-12T19:12:53.875Z,103139.52
2019-02-12T19:15:20.946Z,103145.66
2019-02-12T19:17:58.012Z,103145.25
2019-02-12T19:20:23.991Z,103139.19
2019-02-12T19:22:50.165Z,103142.23
2019-02-12T19:25:16.037Z,103135.72
2019-02-12T19:27:42.298Z,103138.42
2019-02-12T19:30:13.972Z,103137.23
2019-02-12T19:32:40.064Z,103142.12
2019-02-12T19:35:08.596Z,103134.80
2019-02-12T19:37:34.616Z,103141.94
2019-02-12T19:40:00.502Z,103146.52
2019-02-12T19:42:26.465Z,103148.36
2019-02-12T19:44:52.668Z,103147.66
2019-02-12T19:47:18.522Z,103151.19
2019-02-12T19:49:44.527Z,103150.47
2019-02-12T19:52:10.466Z,103150.11
2019-02-12T19:54:36.669Z,103151.60
2019-02-12T19:57:02.603Z,103154.75
2019-02-12T19:59:28.785Z,103152.70
2019-02-12T20:01:55.178Z,103154.17
2019-02-12T20:04:21.190Z,103155.59
2019-02-12T20:06:47.266Z,103164.50
2019-02-12T20:09:16.472Z,103163.69
2019-02-12T20:11:42.438Z,103167.31
2019-02-12T20:14:08.351Z,103161.66
2019-02-12T20:16:34.314Z,103164.28
2019-02-12T20:19:00.482Z,103163.37
2019-02-12T20:21:27.324Z,103156.72
2019-02-12T20:23:53.288Z,103165.19
2019-02-12T20:26:20.043Z,103159.98
2019-02-12T20:28:45.933Z,103164.88
2019-02-12T20:31:12.263Z,103171.50
2019-02-12T20:33:38.111Z,103167.63
2019-02-12T20:36:03.986Z,103172.11
2019-02-12T20:38:29.836Z,103168.27
2019-02-12T20:40:55.911Z,103169.20
2019-02-12T20:43:21.953Z,103161.33
2019-02-12T20:45:47.838Z,103161.77
2019-02-12T20:48:13.647Z,103151.23
2019-02-12T20:50:39.743Z,103156.31
2019-02-12T20:53:05.703Z,103165.05
2019-02-12T20:55:31.580Z,103163.34
2019-02-12T20:57:57.478Z,103163.34
2019-02-12T21:00:23.546Z,103171.34
2019-02-12T21:02:49.598Z,103171.87
2019-02-12T21:05:17.662Z,103170.59
2019-02-12T21:07:47.802Z,103164.48
2019-02-12T21:10:18.925Z,103159.28
2019-02-12T21:12:44.890Z,103165.42
2019-02-12T21:15:17.072Z,103163.70
2019-02-12T21:17:42.936Z,103167.22
2019-02-12T21:20:10.592Z,103160.33
2019-02-12T21:22:38.057Z,103170.86
2019-02-12T21:25:07.684Z,103173.99
2019-02-12T21:27:33.662Z,103169.64
2019-02-12T21:29:59.483Z,103174.92
2019-02-12T21:32:25.396Z,103180.17
2019-02-12T21:34:51.507Z,103185.00
2019-02-12T21:37:17.402Z,103188.94
2019-02-12T21:39:43.229Z,103188.87
2019-02-12T21:42:10.059Z,103190.70
2019-02-12T21:44:35.922Z,103184.17
2019-02-12T21:47:01.811Z,103177.20
2019-02-12T21:49:27.664Z,103187.66
2019-02-12T21:51:54.164Z,103187.15
2019-02-12T21:54:20.037Z,103186.66
2019-02-12T21:56:46.000Z,103191.84
2019-02-12T21:59:13.019Z,103208.94
2019-02-12T22:01:38.863Z,103208.97
2019-02-12T22:04:04.779Z,103223.43
2019-02-12T22:06:30.691Z,103232.64
2019-02-12T22:08:56.568Z,103246.65
2019-02-12T22:11:22.422Z,103242.77
2019-02-12T22:13:48.288Z,103237.13
2019-02-12T22:16:14.123Z,103245.45
2019-02-12T22:18:39.993Z,103239.80
2019-02-12T22:21:05.835Z,103236.73
2019-02-12T22:23:31.703Z,103224.48
2019-02-12T22:25:57.540Z,103232.27
2019-02-12T22:28:23.387Z,103225.75
2019-02-12T22:30:49.256Z,103235.34
2019-02-12T22:33:15.085Z,103231.38
2019-02-12T22:35:40.928Z,103243.64
2019-02-12T22:38:06.749Z,103245.81
2019-02-12T22:40:32.608Z,103244.45
2019-02-12T22:42:58.567Z,103246.63
2019-02-12T22:45:26.150Z,103242.69
2019-02-12T22:47:52.057Z,103245.70
2019-02-12T22:50:18.063Z,103246.12
2019-02-12T22:52:43.868Z,103241.67
2019-02-12T22:55:09.796Z,103242.12
2019-02-12T22:57:35.641Z,103242.95
2019-02-12T23:00:04.171Z,103248.62
2019-02-12T23:02:30.122Z,103250.28
2019-02-12T23:04:55.987Z,103249.73
2019-02-12T23:07:21.837Z,103246.13
2019-02-12T23:09:48.098Z,103239.00
2019-02-12T23:12:14.163Z,103240.31
2019-02-12T23:14:39.986Z,103241.58
2019-02-12T23:17:05.935Z,103244.55
2019-02-12T23:19:31.802Z,103239.70
2019-02-12T23:21:58.318Z,103234.86
2019-02-12T23:24:24.157Z,103238.52
2019-02-12T23:26:49.990Z,103241.74
2019-02-12T23:29:15.854Z,103236.12
2019-02-12T23:31:41.822Z,103239.67
2019-02-12T23:34:07.663Z,103239.30
2019-02-12T23:36:33.522Z,103237.95
2019-02-12T23:38:59.360Z,103235.33
2019-02-12T23:41:25.216Z,103239.71
2019-02-12T23:43:51.087Z,103256.39
2019-02-12T23:46:16.938Z,103251.21
2019-02-12T23:48:42.860Z,103246.83
2019-02-12T23:51:08.698Z,103246.83
2019-02-12T23:53:34.574Z,103251.21
2019-02-12T23:56:00.384Z,103249.86
2019-02-12T23:58:26.236Z,103256.42
